sensor_id;sensor_type;location;lat;lon;timestamp;P1;durP1;ratioP1;P2;durP2;ratioP2
69906;SDS011;57190;47.918;8.112;2022-07-10T00:01:25;2.20;;;1.60;;
69906;SDS011;57190;47.918;8.112;2022-07-10T00:03:51;1.77;;;1.67;;
69906;SDS011;57190;47.918;8.112;2022-07-10T00:06:16;1.45;;;1.35;;
69906;SDS011;57190;47.918;8.112;2022-07-10T00:08:42;1.63;;;1.52;;
69906;SDS011;57190;47.918;8.112;2022-07-10T00:11:08;1.58;;;1.33;;
69906;SDS011;57190;47.918;8.112;2022-07-10T00:13:34;2.28;;;1.30;;
69906;SDS011;57190;47.918;8.112;2022-07-10T00:16:00;1.30;;;1.20;;
69906;SDS011;57190;47.918;8.112;2022-07-10T00:18:27;1.88;;;1.48;;
69906;SDS011;57190;47.918;8.112;2022-07-10T00:20:53;1.58;;;1.40;;
69906;SDS011;57190;47.918;8.112;2022-07-10T00:23:19;2.25;;;1.70;;
69906;SDS011;57190;47.918;8.112;2022-07-10T00:25:45;1.70;;;1.60;;
69906;SDS011;57190;47.918;8.112;2022-07-10T00:28:10;2.03;;;1.48;;
69906;SDS011;57190;47.918;8.112;2022-07-10T00:30:36;1.83;;;1.55;;
69906;SDS011;57190;47.918;8.112;2022-07-10T00:33:03;1.67;;;1.52;;
69906;SDS011;57190;47.918;8.112;2022-07-10T00:35:29;1.75;;;1.50;;
69906;SDS011;57190;47.918;8.112;2022-07-10T00:37:54;1.40;;;1.30;;
69906;SDS011;57190;47.918;8.112;2022-07-10T00:40:20;2.75;;;2.00;;
69906;SDS011;57190;47.918;8.112;2022-07-10T00:42:46;1.70;;;1.58;;
69906;SDS011;57190;47.918;8.112;2022-07-10T00:45:12;1.92;;;1.70;;
69906;SDS011;57190;47.918;8.112;2022-07-10T00:47:37;1.50;;;1.40;;
69906;SDS011;57190;47.918;8.112;2022-07-10T00:50:04;1.50;;;1.40;;
69906;SDS011;57190;47.918;8.112;2022-07-10T00:52:30;4.00;;;1.40;;
69906;SDS011;57190;47.918;8.112;2022-07-10T00:54:56;1.63;;;1.33;;
69906;SDS011;57190;47.918;8.112;2022-07-10T00:57:22;1.70;;;1.60;;
69906;SDS011;57190;47.918;8.112;2022-07-10T00:59:48;2.08;;;1.48;;
69906;SDS011;57190;47.918;8.112;2022-07-10T01:02:14;1.50;;;1.40;;
69906;SDS011;57190;47.918;8.112;2022-07-10T01:04:41;1.70;;;1.60;;
69906;SDS011;57190;47.918;8.112;2022-07-10T01:07:07;1.85;;;1.33;;
69906;SDS011;57190;47.918;8.112;2022-07-10T01:09:32;1.83;;;1.73;;
69906;SDS011;57190;47.918;8.112;2022-07-10T01:12:02;1.50;;;1.40;;
69906;SDS011;57190;47.918;8.112;2022-07-10T01:14:28;2.22;;;1.80;;
69906;SDS011;57190;47.918;8.112;2022-07-10T01:16:55;1.88;;;1.58;;
69906;SDS011;57190;47.918;8.112;2022-07-10T01:19:21;1.95;;;1.75;;
69906;SDS011;57190;47.918;8.112;2022-07-10T01:21:47;3.33;;;1.70;;
69906;SDS011;57190;47.918;8.112;2022-07-10T01:24:12;1.73;;;1.63;;
69906;SDS011;57190;47.918;8.112;2022-07-10T01:26:38;4.00;;;1.83;;
69906;SDS011;57190;47.918;8.112;2022-07-10T01:29:08;2.70;;;1.92;;
69906;SDS011;57190;47.918;8.112;2022-07-10T01:31:34;2.80;;;2.00;;
69906;SDS011;57190;47.918;8.112;2022-07-10T01:34:01;1.88;;;1.77;;
69906;SDS011;57190;47.918;8.112;2022-07-10T01:36:29;2.38;;;2.15;;
69906;SDS011;57190;47.918;8.112;2022-07-10T01:38:55;2.90;;;2.20;;
69906;SDS011;57190;47.918;8.112;2022-07-10T01:41:22;2.33;;;2.13;;
69906;SDS011;57190;47.918;8.112;2022-07-10T01:43:49;1.98;;;1.77;;
69906;SDS011;57190;47.918;8.112;2022-07-10T01:46:14;2.05;;;1.95;;
69906;SDS011;57190;47.918;8.112;2022-07-10T01:48:41;1.83;;;1.70;;
69906;SDS011;57190;47.918;8.112;2022-07-10T01:51:07;2.28;;;2.17;;
69906;SDS011;57190;47.918;8.112;2022-07-10T01:53:34;2.03;;;1.90;;
69906;SDS011;57190;47.918;8.112;2022-07-10T01:56:00;2.35;;;2.15;;
69906;SDS011;57190;47.918;8.112;2022-07-10T01:58:28;2.47;;;2.28;;
69906;SDS011;57190;47.918;8.112;2022-07-10T02:00:54;2.30;;;2.10;;
69906;SDS011;57190;47.918;8.112;2022-07-10T02:03:19;1.88;;;1.77;;
69906;SDS011;57190;47.918;8.112;2022-07-10T02:06:03;2.33;;;2.15;;
69906;SDS011;57190;47.918;8.112;2022-07-10T02:08:29;2.60;;;2.40;;
69906;SDS011;57190;47.918;8.112;2022-07-10T02:10:54;2.33;;;2.13;;
69906;SDS011;57190;47.918;8.112;2022-07-10T02:13:20;2.30;;;2.10;;
69906;SDS011;57190;47.918;8.112;2022-07-10T02:15:46;2.78;;;2.58;;
69906;SDS011;57190;47.918;8.112;2022-07-10T02:18:12;2.33;;;2.15;;
69906;SDS011;57190;47.918;8.112;2022-07-10T02:20:38;2.35;;;2.22;;
69906;SDS011;57190;47.918;8.112;2022-07-10T02:23:04;2.60;;;2.42;;
69906;SDS011;57190;47.918;8.112;2022-07-10T02:25:31;2.20;;;2.00;;
69906;SDS011;57190;47.918;8.112;2022-07-10T02:27:56;3.22;;;2.50;;
69906;SDS011;57190;47.918;8.112;2022-07-10T02:30:22;2.45;;;2.25;;
69906;SDS011;57190;47.918;8.112;2022-07-10T02:32:48;2.58;;;2.38;;
69906;SDS011;57190;47.918;8.112;2022-07-10T02:35:13;2.35;;;2.25;;
69906;SDS011;57190;47.918;8.112;2022-07-10T02:37:39;3.35;;;2.88;;
69906;SDS011;57190;47.918;8.112;2022-07-10T02:40:05;2.90;;;2.70;;
69906;SDS011;57190;47.918;8.112;2022-07-10T02:42:30;3.05;;;2.85;;
69906;SDS011;57190;47.918;8.112;2022-07-10T02:44:56;4.07;;;3.20;;
69906;SDS011;57190;47.918;8.112;2022-07-10T02:47:22;3.85;;;3.55;;
69906;SDS011;57190;47.918;8.112;2022-07-10T02:49:47;2.83;;;2.63;;
69906;SDS011;57190;47.918;8.112;2022-07-10T02:52:13;3.28;;;3.00;;
69906;SDS011;57190;47.918;8.112;2022-07-10T02:54:38;3.03;;;2.75;;
69906;SDS011;57190;47.918;8.112;2022-07-10T02:57:05;3.28;;;2.97;;
69906;SDS011;57190;47.918;8.112;2022-07-10T02:59:31;3.58;;;3.25;;
69906;SDS011;57190;47.918;8.112;2022-07-10T03:01:57;3.72;;;3.42;;
69906;SDS011;57190;47.918;8.112;2022-07-10T03:04:22;3.10;;;2.90;;
69906;SDS011;57190;47.918;8.112;2022-07-10T03:06:48;3.53;;;3.22;;
69906;SDS011;57190;47.918;8.112;2022-07-10T03:09:13;3.30;;;3.10;;
69906;SDS011;57190;47.918;8.112;2022-07-10T03:11:39;3.10;;;2.90;;
69906;SDS011;57190;47.918;8.112;2022-07-10T03:14:04;2.83;;;2.45;;
69906;SDS011;57190;47.918;8.112;2022-07-10T03:16:31;3.40;;;3.15;;
69906;SDS011;57190;47.918;8.112;2022-07-10T03:18:57;3.38;;;3.17;;
69906;SDS011;57190;47.918;8.112;2022-07-10T03:21:22;3.40;;;3.20;;
69906;SDS011;57190;47.918;8.112;2022-07-10T03:23:48;3.60;;;3.35;;
69906;SDS011;57190;47.918;8.112;2022-07-10T03:26:14;3.42;;;3.17;;
69906;SDS011;57190;47.918;8.112;2022-07-10T03:28:39;3.22;;;2.97;;
69906;SDS011;57190;47.918;8.112;2022-07-10T03:31:05;3.53;;;3.22;;
69906;SDS011;57190;47.918;8.112;2022-07-10T03:33:30;3.72;;;3.42;;
69906;SDS011;57190;47.918;8.112;2022-07-10T03:35:56;4.22;;;3.13;;
69906;SDS011;57190;47.918;8.112;2022-07-10T03:38:22;3.33;;;3.13;;
69906;SDS011;57190;47.918;8.112;2022-07-10T03:40:47;3.33;;;3.15;;
69906;SDS011;57190;47.918;8.112;2022-07-10T03:43:16;3.90;;;3.60;;
69906;SDS011;57190;47.918;8.112;2022-07-10T03:45:41;3.28;;;3.00;;
69906;SDS011;57190;47.918;8.112;2022-07-10T03:48:07;3.47;;;3.28;;
69906;SDS011;57190;47.918;8.112;2022-07-10T03:50:32;3.53;;;3.33;;
69906;SDS011;57190;47.918;8.112;2022-07-10T03:52:59;3.33;;;3.13;;
69906;SDS011;57190;47.918;8.112;2022-07-10T03:55:25;3.47;;;3.25;;
69906;SDS011;57190;47.918;8.112;2022-07-10T03:57:50;3.33;;;3.10;;
69906;SDS011;57190;47.918;8.112;2022-07-10T04:00:29;3.22;;;3.03;;
69906;SDS011;57190;47.918;8.112;2022-07-10T04:03:02;3.38;;;3.08;;
69906;SDS011;57190;47.918;8.112;2022-07-10T04:05:29;3.13;;;2.92;;
69906;SDS011;57190;47.918;8.112;2022-07-10T04:07:55;3.42;;;3.22;;
69906;SDS011;57190;47.918;8.112;2022-07-10T04:10:25;3.22;;;2.92;;
69906;SDS011;57190;47.918;8.112;2022-07-10T04:12:52;3.25;;;3.00;;
69906;SDS011;57190;47.918;8.112;2022-07-10T04:15:18;3.03;;;2.83;;
69906;SDS011;57190;47.918;8.112;2022-07-10T04:17:44;3.53;;;3.22;;
69906;SDS011;57190;47.918;8.112;2022-07-10T04:20:10;3.10;;;2.90;;
69906;SDS011;57190;47.918;8.112;2022-07-10T04:22:36;3.30;;;3.10;;
69906;SDS011;57190;47.918;8.112;2022-07-10T04:25:02;3.60;;;3.30;;
69906;SDS011;57190;47.918;8.112;2022-07-10T04:27:28;3.60;;;3.20;;
69906;SDS011;57190;47.918;8.112;2022-07-10T04:29:54;3.38;;;3.17;;
69906;SDS011;57190;47.918;8.112;2022-07-10T04:32:19;3.17;;;2.97;;
69906;SDS011;57190;47.918;8.112;2022-07-10T04:34:45;3.40;;;3.10;;
69906;SDS011;57190;47.918;8.112;2022-07-10T04:37:11;2.50;;;2.40;;
69906;SDS011;57190;47.918;8.112;2022-07-10T04:39:36;2.88;;;2.67;;
69906;SDS011;57190;47.918;8.112;2022-07-10T04:42:03;3.05;;;2.85;;
69906;SDS011;57190;47.918;8.112;2022-07-10T04:44:32;2.90;;;2.70;;
69906;SDS011;57190;47.918;8.112;2022-07-10T04:46:59;3.10;;;2.90;;
69906;SDS011;57190;47.918;8.112;2022-07-10T04:49:24;2.95;;;2.65;;
69906;SDS011;57190;47.918;8.112;2022-07-10T04:51:50;3.33;;;3.13;;
69906;SDS011;57190;47.918;8.112;2022-07-10T04:54:16;2.85;;;2.65;;
69906;SDS011;57190;47.918;8.112;2022-07-10T04:56:42;2.55;;;2.45;;
69906;SDS011;57190;47.918;8.112;2022-07-10T04:59:07;2.40;;;2.30;;
69906;SDS011;57190;47.918;8.112;2022-07-10T05:01:34;2.10;;;2.00;;
69906;SDS011;57190;47.918;8.112;2022-07-10T05:04:00;2.58;;;2.38;;
69906;SDS011;57190;47.918;8.112;2022-07-10T05:06:25;2.67;;;2.10;;
69906;SDS011;57190;47.918;8.112;2022-07-10T05:08:51;2.92;;;2.72;;
69906;SDS011;57190;47.918;8.112;2022-07-10T05:11:16;2.60;;;2.50;;
69906;SDS011;57190;47.918;8.112;2022-07-10T05:13:42;3.70;;;3.17;;
69906;SDS011;57190;47.918;8.112;2022-07-10T05:16:11;2.80;;;2.60;;
69906;SDS011;57190;47.918;8.112;2022-07-10T05:18:38;3.00;;;2.80;;
69906;SDS011;57190;47.918;8.112;2022-07-10T05:21:04;2.88;;;2.75;;
69906;SDS011;57190;47.918;8.112;2022-07-10T05:23:29;2.65;;;2.53;;
69906;SDS011;57190;47.918;8.112;2022-07-10T05:25:55;5.20;;;4.45;;
69906;SDS011;57190;47.918;8.112;2022-07-10T05:28:20;2.92;;;2.72;;
69906;SDS011;57190;47.918;8.112;2022-07-10T05:30:46;2.70;;;2.55;;
69906;SDS011;57190;47.918;8.112;2022-07-10T05:33:11;2.50;;;2.40;;
69906;SDS011;57190;47.918;8.112;2022-07-10T05:35:37;3.55;;;3.33;;
69906;SDS011;57190;47.918;8.112;2022-07-10T05:38:02;3.45;;;3.25;;
69906;SDS011;57190;47.918;8.112;2022-07-10T05:40:28;3.80;;;2.90;;
69906;SDS011;57190;47.918;8.112;2022-07-10T05:42:54;4.45;;;3.60;;
69906;SDS011;57190;47.918;8.112;2022-07-10T05:45:19;3.13;;;2.75;;
69906;SDS011;57190;47.918;8.112;2022-07-10T05:47:45;2.38;;;2.28;;
69906;SDS011;57190;47.918;8.112;2022-07-10T05:50:11;3.42;;;2.78;;
69906;SDS011;57190;47.918;8.112;2022-07-10T05:52:37;3.40;;;2.70;;
69906;SDS011;57190;47.918;8.112;2022-07-10T05:55:03;3.03;;;2.72;;
69906;SDS011;57190;47.918;8.112;2022-07-10T05:57:30;3.30;;;2.83;;
69906;SDS011;57190;47.918;8.112;2022-07-10T05:59:56;3.15;;;2.90;;
69906;SDS011;57190;47.918;8.112;2022-07-10T06:02:22;2.55;;;2.45;;
69906;SDS011;57190;47.918;8.112;2022-07-10T06:04:48;3.30;;;3.10;;
69906;SDS011;57190;47.918;8.112;2022-07-10T06:07:14;2.95;;;2.75;;
69906;SDS011;57190;47.918;8.112;2022-07-10T06:09:40;2.97;;;2.78;;
69906;SDS011;57190;47.918;8.112;2022-07-10T06:12:06;3.05;;;2.83;;
69906;SDS011;57190;47.918;8.112;2022-07-10T06:14:31;2.90;;;2.70;;
69906;SDS011;57190;47.918;8.112;2022-07-10T06:16:57;2.97;;;2.78;;
69906;SDS011;57190;47.918;8.112;2022-07-10T06:19:22;2.83;;;2.47;;
69906;SDS011;57190;47.918;8.112;2022-07-10T06:21:48;2.97;;;2.70;;
69906;SDS011;57190;47.918;8.112;2022-07-10T06:24:33;2.97;;;2.78;;
69906;SDS011;57190;47.918;8.112;2022-07-10T06:26:59;2.85;;;2.65;;
69906;SDS011;57190;47.918;8.112;2022-07-10T06:29:25;2.88;;;2.67;;
69906;SDS011;57190;47.918;8.112;2022-07-10T06:31:50;2.80;;;2.60;;
69906;SDS011;57190;47.918;8.112;2022-07-10T06:34:16;2.95;;;2.53;;
69906;SDS011;57190;47.918;8.112;2022-07-10T06:36:41;3.00;;;2.80;;
69906;SDS011;57190;47.918;8.112;2022-07-10T06:39:07;2.92;;;2.72;;
69906;SDS011;57190;47.918;8.112;2022-07-10T06:41:33;2.50;;;2.40;;
69906;SDS011;57190;47.918;8.112;2022-07-10T06:43:58;3.10;;;2.50;;
69906;SDS011;57190;47.918;8.112;2022-07-10T06:46:26;3.10;;;2.90;;
69906;SDS011;57190;47.918;8.112;2022-07-10T06:48:51;2.78;;;2.58;;
69906;SDS011;57190;47.918;8.112;2022-07-10T06:51:17;2.47;;;2.28;;
69906;SDS011;57190;47.918;8.112;2022-07-10T06:53:43;2.90;;;2.70;;
69906;SDS011;57190;47.918;8.112;2022-07-10T06:56:09;2.72;;;2.63;;
69906;SDS011;57190;47.918;8.112;2022-07-10T06:58:35;2.90;;;2.70;;
69906;SDS011;57190;47.918;8.112;2022-07-10T07:01:01;2.90;;;2.70;;
69906;SDS011;57190;47.918;8.112;2022-07-10T07:03:26;3.65;;;2.72;;
69906;SDS011;57190;47.918;8.112;2022-07-10T07:05:52;2.92;;;2.72;;
69906;SDS011;57190;47.918;8.112;2022-07-10T07:08:17;2.65;;;2.25;;
69906;SDS011;57190;47.918;8.112;2022-07-10T07:10:43;3.03;;;2.22;;
69906;SDS011;57190;47.918;8.112;2022-07-10T07:13:09;2.17;;;2.08;;
69906;SDS011;57190;47.918;8.112;2022-07-10T07:15:35;2.53;;;2.30;;
69906;SDS011;57190;47.918;8.112;2022-07-10T07:18:04;2.70;;;2.50;;
69906;SDS011;57190;47.918;8.112;2022-07-10T07:20:33;2.55;;;2.35;;
69906;SDS011;57190;47.918;8.112;2022-07-10T07:23:19;2.28;;;2.15;;
69906;SDS011;57190;47.918;8.112;2022-07-10T07:25:45;2.70;;;1.98;;
69906;SDS011;57190;47.918;8.112;2022-07-10T07:28:17;2.20;;;2.00;;
69906;SDS011;57190;47.918;8.112;2022-07-10T07:30:47;2.60;;;2.03;;
69906;SDS011;57190;47.918;8.112;2022-07-10T07:33:13;2.30;;;2.20;;
69906;SDS011;57190;47.918;8.112;2022-07-10T07:35:38;2.40;;;2.30;;
69906;SDS011;57190;47.918;8.112;2022-07-10T07:38:04;2.55;;;2.35;;
69906;SDS011;57190;47.918;8.112;2022-07-10T07:40:31;2.40;;;2.20;;
69906;SDS011;57190;47.918;8.112;2022-07-10T07:42:57;2.20;;;2.10;;
69906;SDS011;57190;47.918;8.112;2022-07-10T07:45:23;2.00;;;1.90;;
69906;SDS011;57190;47.918;8.112;2022-07-10T07:47:51;2.10;;;1.90;;
69906;SDS011;57190;47.918;8.112;2022-07-10T07:50:22;2.20;;;2.10;;
69906;SDS011;57190;47.918;8.112;2022-07-10T07:52:51;2.95;;;2.50;;
69906;SDS011;57190;47.918;8.112;2022-07-10T07:55:17;2.50;;;2.30;;
69906;SDS011;57190;47.918;8.112;2022-07-10T07:57:43;3.00;;;2.80;;
69906;SDS011;57190;47.918;8.112;2022-07-10T08:00:10;2.63;;;2.42;;
69906;SDS011;57190;47.918;8.112;2022-07-10T08:02:37;2.60;;;2.40;;
69906;SDS011;57190;47.918;8.112;2022-07-10T08:05:04;2.72;;;2.58;;
69906;SDS011;57190;47.918;8.112;2022-07-10T08:07:34;3.40;;;3.10;;
69906;SDS011;57190;47.918;8.112;2022-07-10T08:10:01;2.47;;;2.38;;
69906;SDS011;57190;47.918;8.112;2022-07-10T08:12:27;2.60;;;2.40;;
69906;SDS011;57190;47.918;8.112;2022-07-10T08:14:53;2.85;;;2.65;;
69906;SDS011;57190;47.918;8.112;2022-07-10T08:17:18;3.35;;;3.05;;
69906;SDS011;57190;47.918;8.112;2022-07-10T08:19:44;3.75;;;2.90;;
69906;SDS011;57190;47.918;8.112;2022-07-10T08:22:09;3.25;;;2.90;;
69906;SDS011;57190;47.918;8.112;2022-07-10T08:24:35;2.90;;;2.70;;
69906;SDS011;57190;47.918;8.112;2022-07-10T08:27:00;2.50;;;2.38;;
69906;SDS011;57190;47.918;8.112;2022-07-10T08:29:26;2.97;;;2.55;;
69906;SDS011;57190;47.918;8.112;2022-07-10T08:31:51;3.05;;;2.85;;
69906;SDS011;57190;47.918;8.112;2022-07-10T08:34:17;2.97;;;2.78;;
69906;SDS011;57190;47.918;8.112;2022-07-10T08:36:42;2.90;;;2.70;;
69906;SDS011;57190;47.918;8.112;2022-07-10T08:39:08;2.75;;;2.55;;
69906;SDS011;57190;47.918;8.112;2022-07-10T08:41:34;3.00;;;2.80;;
69906;SDS011;57190;47.918;8.112;2022-07-10T08:44:01;2.60;;;2.40;;
69906;SDS011;57190;47.918;8.112;2022-07-10T08:46:27;3.05;;;2.42;;
69906;SDS011;57190;47.918;8.112;2022-07-10T08:48:53;3.83;;;3.03;;
69906;SDS011;57190;47.918;8.112;2022-07-10T08:51:24;2.72;;;2.50;;
69906;SDS011;57190;47.918;8.112;2022-07-10T08:54:00;3.92;;;3.20;;
69906;SDS011;57190;47.918;8.112;2022-07-10T08:56:26;2.67;;;2.47;;
69906;SDS011;57190;47.918;8.112;2022-07-10T08:58:52;2.55;;;2.30;;
69906;SDS011;57190;47.918;8.112;2022-07-10T09:01:19;2.90;;;2.70;;
69906;SDS011;57190;47.918;8.112;2022-07-10T09:03:48;2.42;;;2.33;;
69906;SDS011;57190;47.918;8.112;2022-07-10T09:06:15;3.10;;;2.90;;
69906;SDS011;57190;47.918;8.112;2022-07-10T09:08:57;2.40;;;2.20;;
69906;SDS011;57190;47.918;8.112;2022-07-10T09:11:27;2.42;;;2.20;;
69906;SDS011;57190;47.918;8.112;2022-07-10T09:13:56;2.75;;;2.55;;
69906;SDS011;57190;47.918;8.112;2022-07-10T09:16:42;2.70;;;2.50;;
69906;SDS011;57190;47.918;8.112;2022-07-10T09:19:23;2.70;;;2.50;;
69906;SDS011;57190;47.918;8.112;2022-07-10T09:24:36;2.78;;;2.53;;
69906;SDS011;57190;47.918;8.112;2022-07-10T09:27:01;2.70;;;2.50;;
69906;SDS011;57190;47.918;8.112;2022-07-10T09:29:31;2.90;;;2.33;;
69906;SDS011;57190;47.918;8.112;2022-07-10T09:31:58;2.40;;;2.20;;
69906;SDS011;57190;47.918;8.112;2022-07-10T09:34:43;2.58;;;2.38;;
69906;SDS011;57190;47.918;8.112;2022-07-10T09:42:27;2.58;;;2.30;;
69906;SDS011;57190;47.918;8.112;2022-07-10T09:45:22;2.13;;;1.98;;
69906;SDS011;57190;47.918;8.112;2022-07-10T09:47:59;3.53;;;2.28;;
69906;SDS011;57190;47.918;8.112;2022-07-10T09:50:33;2.75;;;1.80;;
69906;SDS011;57190;47.918;8.112;2022-07-10T09:53:01;1.85;;;1.75;;
69906;SDS011;57190;47.918;8.112;2022-07-10T09:55:32;1.90;;;1.80;;
69906;SDS011;57190;47.918;8.112;2022-07-10T10:00:29;2.67;;;2.47;;
69906;SDS011;57190;47.918;8.112;2022-07-10T10:03:00;1.90;;;1.80;;
69906;SDS011;57190;47.918;8.112;2022-07-10T10:08:04;2.22;;;2.03;;
69906;SDS011;57190;47.918;8.112;2022-07-10T10:10:34;3.17;;;1.88;;
69906;SDS011;57190;47.918;8.112;2022-07-10T10:13:01;1.95;;;1.70;;
69906;SDS011;57190;47.918;8.112;2022-07-10T10:15:29;2.38;;;1.90;;
69906;SDS011;57190;47.918;8.112;2022-07-10T10:17:56;1.80;;;1.70;;
69906;SDS011;57190;47.918;8.112;2022-07-10T10:20:24;1.85;;;1.75;;
69906;SDS011;57190;47.918;8.112;2022-07-10T10:23:05;2.15;;;2.05;;
69906;SDS011;57190;47.918;8.112;2022-07-10T10:25:35;2.20;;;2.00;;
69906;SDS011;57190;47.918;8.112;2022-07-10T10:28:02;2.83;;;1.70;;
69906;SDS011;57190;47.918;8.112;2022-07-10T10:30:31;2.08;;;1.88;;
69906;SDS011;57190;47.918;8.112;2022-07-10T10:32:58;1.80;;;1.70;;
69906;SDS011;57190;47.918;8.112;2022-07-10T10:38:13;3.05;;;2.00;;
69906;SDS011;57190;47.918;8.112;2022-07-10T10:40:39;2.08;;;1.85;;
69906;SDS011;57190;47.918;8.112;2022-07-10T10:43:20;3.05;;;1.80;;
69906;SDS011;57190;47.918;8.112;2022-07-10T10:45:47;1.50;;;1.40;;
69906;SDS011;57190;47.918;8.112;2022-07-10T10:48:14;1.67;;;1.58;;
69906;SDS011;57190;47.918;8.112;2022-07-10T10:50:46;2.10;;;2.00;;
69906;SDS011;57190;47.918;8.112;2022-07-10T10:58:35;1.67;;;1.58;;
69906;SDS011;57190;47.918;8.112;2022-07-10T11:01:04;1.75;;;1.65;;
69906;SDS011;57190;47.918;8.112;2022-07-10T11:03:31;2.17;;;1.98;;
69906;SDS011;57190;47.918;8.112;2022-07-10T11:05:57;1.80;;;1.70;;
69906;SDS011;57190;47.918;8.112;2022-07-10T11:08:36;2.38;;;1.85;;
69906;SDS011;57190;47.918;8.112;2022-07-10T11:13:59;1.80;;;1.63;;
69906;SDS011;57190;47.918;8.112;2022-07-10T11:16:25;1.70;;;1.60;;
69906;SDS011;57190;47.918;8.112;2022-07-10T11:18:54;2.40;;;1.83;;
69906;SDS011;57190;47.918;8.112;2022-07-10T11:21:23;2.17;;;1.95;;
69906;SDS011;57190;47.918;8.112;2022-07-10T11:23:59;1.90;;;1.77;;
69906;SDS011;57190;47.918;8.112;2022-07-10T11:26:55;1.73;;;1.60;;
69906;SDS011;57190;47.918;8.112;2022-07-10T11:29:27;2.40;;;1.58;;
69906;SDS011;57190;47.918;8.112;2022-07-10T11:31:53;2.80;;;1.92;;
69906;SDS011;57190;47.918;8.112;2022-07-10T11:34:19;1.80;;;1.70;;
69906;SDS011;57190;47.918;8.112;2022-07-10T11:36:46;2.97;;;1.80;;
69906;SDS011;57190;47.918;8.112;2022-07-10T11:39:13;1.77;;;1.60;;
69906;SDS011;57190;47.918;8.112;2022-07-10T11:41:45;1.55;;;1.45;;
69906;SDS011;57190;47.918;8.112;2022-07-10T11:44:14;1.80;;;1.70;;
69906;SDS011;57190;47.918;8.112;2022-07-10T11:46:42;1.50;;;1.40;;
69906;SDS011;57190;47.918;8.112;2022-07-10T11:49:14;1.98;;;1.52;;
69906;SDS011;57190;47.918;8.112;2022-07-10T11:51:41;1.83;;;1.73;;
69906;SDS011;57190;47.918;8.112;2022-07-10T11:54:09;2.05;;;1.60;;
69906;SDS011;57190;47.918;8.112;2022-07-10T11:56:38;2.10;;;1.70;;
69906;SDS011;57190;47.918;8.112;2022-07-10T11:59:11;1.45;;;1.35;;
69906;SDS011;57190;47.918;8.112;2022-07-10T12:01:45;1.65;;;1.55;;
69906;SDS011;57190;47.918;8.112;2022-07-10T12:04:16;1.70;;;1.60;;
69906;SDS011;57190;47.918;8.112;2022-07-10T12:06:45;2.33;;;2.13;;
69906;SDS011;57190;47.918;8.112;2022-07-10T12:09:12;2.50;;;2.00;;
69906;SDS011;57190;47.918;8.112;2022-07-10T12:11:39;1.65;;;1.55;;
69906;SDS011;57190;47.918;8.112;2022-07-10T12:16:47;1.50;;;1.40;;
69906;SDS011;57190;47.918;8.112;2022-07-10T12:19:17;1.98;;;1.77;;
69906;SDS011;57190;47.918;8.112;2022-07-10T12:21:46;2.30;;;1.70;;
69906;SDS011;57190;47.918;8.112;2022-07-10T12:24:13;3.30;;;1.90;;
69906;SDS011;57190;47.918;8.112;2022-07-10T12:26:42;1.98;;;1.88;;
69906;SDS011;57190;47.918;8.112;2022-07-10T12:31:43;2.50;;;1.50;;
69906;SDS011;57190;47.918;8.112;2022-07-10T12:34:10;1.98;;;1.80;;
69906;SDS011;57190;47.918;8.112;2022-07-10T12:36:43;5.20;;;1.73;;
69906;SDS011;57190;47.918;8.112;2022-07-10T12:39:10;1.98;;;1.88;;
69906;SDS011;57190;47.918;8.112;2022-07-10T12:41:56;2.00;;;1.58;;
69906;SDS011;57190;47.918;8.112;2022-07-10T12:47:11;2.67;;;1.40;;
69906;SDS011;57190;47.918;8.112;2022-07-10T12:52:21;2.40;;;1.55;;
69906;SDS011;57190;47.918;8.112;2022-07-10T12:54:48;1.40;;;1.30;;
69906;SDS011;57190;47.918;8.112;2022-07-10T12:57:13;1.70;;;1.58;;
69906;SDS011;57190;47.918;8.112;2022-07-10T12:59:39;1.55;;;1.45;;
69906;SDS011;57190;47.918;8.112;2022-07-10T13:02:14;2.30;;;1.30;;
69906;SDS011;57190;47.918;8.112;2022-07-10T13:04:51;1.40;;;1.30;;
69906;SDS011;57190;47.918;8.112;2022-07-10T13:07:17;1.52;;;1.42;;
69906;SDS011;57190;47.918;8.112;2022-07-10T13:09:43;1.67;;;1.48;;
69906;SDS011;57190;47.918;8.112;2022-07-10T13:12:09;2.42;;;1.38;;
69906;SDS011;57190;47.918;8.112;2022-07-10T13:14:35;1.80;;;1.35;;
69906;SDS011;57190;47.918;8.112;2022-07-10T13:17:00;1.63;;;1.40;;
69906;SDS011;57190;47.918;8.112;2022-07-10T13:19:26;1.58;;;1.48;;
69906;SDS011;57190;47.918;8.112;2022-07-10T13:21:52;1.27;;;1.17;;
69906;SDS011;57190;47.918;8.112;2022-07-10T13:24:17;1.40;;;1.20;;
69906;SDS011;57190;47.918;8.112;2022-07-10T13:26:43;1.40;;;1.30;;
69906;SDS011;57190;47.918;8.112;2022-07-10T13:29:08;1.70;;;1.40;;
69906;SDS011;57190;47.918;8.112;2022-07-10T13:31:34;1.52;;;1.42;;
69906;SDS011;57190;47.918;8.112;2022-07-10T13:33:59;1.30;;;1.13;;
69906;SDS011;57190;47.918;8.112;2022-07-10T13:36:25;2.88;;;1.30;;
69906;SDS011;57190;47.918;8.112;2022-07-10T13:38:51;1.70;;;1.45;;
69906;SDS011;57190;47.918;8.112;2022-07-10T13:41:17;1.52;;;1.30;;
69906;SDS011;57190;47.918;8.112;2022-07-10T13:43:44;1.17;;;1.05;;
69906;SDS011;57190;47.918;8.112;2022-07-10T13:46:09;1.67;;;1.40;;
69906;SDS011;57190;47.918;8.112;2022-07-10T13:48:35;1.70;;;1.60;;
69906;SDS011;57190;47.918;8.112;2022-07-10T13:51:00;1.58;;;1.40;;
69906;SDS011;57190;47.918;8.112;2022-07-10T13:53:26;1.15;;;1.00;;
69906;SDS011;57190;47.918;8.112;2022-07-10T13:55:52;1.98;;;1.25;;
69906;SDS011;57190;47.918;8.112;2022-07-10T13:58:18;1.33;;;1.23;;
69906;SDS011;57190;47.918;8.112;2022-07-10T14:00:45;1.35;;;1.20;;
69906;SDS011;57190;47.918;8.112;2022-07-10T14:03:11;1.25;;;1.08;;
69906;SDS011;57190;47.918;8.112;2022-07-10T14:05:36;2.15;;;1.17;;
69906;SDS011;57190;47.918;8.112;2022-07-10T14:08:02;1.00;;;1.00;;
69906;SDS011;57190;47.918;8.112;2022-07-10T14:10:28;1.20;;;1.10;;
69906;SDS011;57190;47.918;8.112;2022-07-10T14:12:53;2.25;;;1.30;;
69906;SDS011;57190;47.918;8.112;2022-07-10T14:15:19;1.35;;;1.08;;
69906;SDS011;57190;47.918;8.112;2022-07-10T14:17:45;1.05;;;1.00;;
69906;SDS011;57190;47.918;8.112;2022-07-10T14:20:11;1.20;;;1.10;;
69906;SDS011;57190;47.918;8.112;2022-07-10T14:22:37;1.92;;;1.27;;
69906;SDS011;57190;47.918;8.112;2022-07-10T14:25:04;1.33;;;1.23;;
69906;SDS011;57190;47.918;8.112;2022-07-10T14:27:30;1.55;;;1.05;;
69906;SDS011;57190;47.918;8.112;2022-07-10T14:29:57;1.10;;;1.00;;
69906;SDS011;57190;47.918;8.112;2022-07-10T14:32:23;1.25;;;0.82;;
69906;SDS011;57190;47.918;8.112;2022-07-10T14:34:49;1.30;;;1.10;;
69906;SDS011;57190;47.918;8.112;2022-07-10T14:37:14;0.93;;;0.80;;
69906;SDS011;57190;47.918;8.112;2022-07-10T14:39:40;1.23;;;1.13;;
69906;SDS011;57190;47.918;8.112;2022-07-10T14:42:06;1.20;;;1.10;;
69906;SDS011;57190;47.918;8.112;2022-07-10T14:44:35;1.33;;;0.98;;
69906;SDS011;57190;47.918;8.112;2022-07-10T14:47:00;1.35;;;1.05;;
69906;SDS011;57190;47.918;8.112;2022-07-10T14:49:27;1.30;;;1.20;;
69906;SDS011;57190;47.918;8.112;2022-07-10T14:51:52;0.98;;;0.93;;
69906;SDS011;57190;47.918;8.112;2022-07-10T14:54:20;1.70;;;0.90;;
69906;SDS011;57190;47.918;8.112;2022-07-10T14:56:45;1.00;;;0.88;;
69906;SDS011;57190;47.918;8.112;2022-07-10T14:59:11;1.35;;;1.20;;
69906;SDS011;57190;47.918;8.112;2022-07-10T15:01:36;2.72;;;1.30;;
69906;SDS011;57190;47.918;8.112;2022-07-10T15:04:02;1.30;;;1.13;;
69906;SDS011;57190;47.918;8.112;2022-07-10T15:06:28;2.78;;;1.08;;
69906;SDS011;57190;47.918;8.112;2022-07-10T15:08:53;1.30;;;1.00;;
69906;SDS011;57190;47.918;8.112;2022-07-10T15:11:19;1.63;;;1.30;;
69906;SDS011;57190;47.918;8.112;2022-07-10T15:13:54;1.20;;;0.90;;
69906;SDS011;57190;47.918;8.112;2022-07-10T15:16:24;1.20;;;1.10;;
69906;SDS011;57190;47.918;8.112;2022-07-10T15:18:53;1.23;;;0.90;;
69906;SDS011;57190;47.918;8.112;2022-07-10T15:21:19;1.00;;;0.90;;
69906;SDS011;57190;47.918;8.112;2022-07-10T15:23:44;1.77;;;1.20;;